Time;durP1;ratioP1;P1;durP2;ratioP2;P2;SDS_P1;SDS_P2;PMS_P1;PMS_P2;Temp;Humidity;BMP_temperature;BMP_pressure;BME280_temperature;BME280_humidity;BME280_pressure;Samples;Min_cycle;Max_cycle;Signal;HPM_P1;HPM_P2
2021/09/28 00:01:08;;;;;;;1.60;0.55;;;;;;;;;;4993804;28;20453;-73
2021/09/28 00:03:35;;;;;;;0.52;0.30;;;;;;;;;;4995962;28;20061;-72
2021/09/28 00:06:02;;;;;;;2.10;0.50;;;;;;;;;;4995843;28;20386;-73
2021/09/28 00:08:28;;;;;;;0.45;0.45;;;;;;;;;;4994408;28;20085;-74
2021/09/28 00:10:55;;;;;;;2.22;0.60;;;;;;;;;;4995898;28;20050;-74
2021/09/28 00:13:24;;;;;;;2.45;0.50;;;;;;;;;;4995548;28;20116;-73
2021/09/28 00:15:51;;;;;;;3.20;0.63;;;;;;;;;;4995715;28;20050;-73
2021/09/28 00:18:18;;;;;;;0.82;0.40;;;;;;;;;;4995718;28;20137;-73
2021/09/28 00:20:44;;;;;;;1.65;0.50;;;;;;;;;;4995689;28;20062;-74
2021/09/28 00:23:13;;;;;;;0.82;0.38;;;;;;;;;;4995139;28;20461;-74
2021/09/28 00:25:41;;;;;;;1.75;0.60;;;;;;;;;;4994479;28;20054;-74
2021/09/28 00:28:08;;;;;;;1.35;0.40;;;;;;;;;;4995437;28;20069;-73
2021/09/28 00:30:34;;;;;;;0.88;0.50;;;;;;;;;;4995424;28;20050;-73
2021/09/28 00:33:01;;;;;;;0.98;0.77;;;;;;;;;;4995407;28;20046;-72
2021/09/28 00:35:28;;;;;;;4.75;0.40;;;;;;;;;;4995794;28;20105;-72
2021/09/28 00:37:54;;;;;;;4.45;0.50;;;;;;;;;;4995718;28;20058;-72
2021/09/28 00:40:21;;;;;;;3.67;0.60;;;;;;;;;;4995412;28;20109;-73
2021/09/28 00:42:48;;;;;;;1.92;0.60;;;;;;;;;;4995398;28;20530;-72
2021/09/28 00:45:14;;;;;;;1.25;0.40;;;;;;;;;;4994238;28;20050;-71
2021/09/28 00:47:41;;;;;;;8.88;0.80;;;;;;;;;;4995267;28;20054;-72
2021/09/28 00:50:08;;;;;;;3.42;1.35;;;;;;;;;;4995187;28;20494;-73
2021/09/28 00:52:35;;;;;;;2.22;0.70;;;;;;;;;;4995164;28;20464;-73
2021/09/28 00:55:02;;;;;;;4.68;1.23;;;;;;;;;;4977758;28;20113;-73
2021/09/28 00:57:29;;;;;;;2.38;0.60;;;;;;;;;;4993739;28;20050;-74
2021/09/28 00:59:56;;;;;;;1.13;0.70;;;;;;;;;;4994840;28;20050;-73
2021/09/28 01:02:23;;;;;;;1.85;0.60;;;;;;;;;;4993327;28;20113;-73
2021/09/28 01:04:49;;;;;;;1.75;0.60;;;;;;;;;;4977553;28;20054;-73
2021/09/28 01:07:16;;;;;;;2.63;0.70;;;;;;;;;;4994631;28;20058;-73
2021/09/28 01:09:43;;;;;;;3.38;0.70;;;;;;;;;;4994686;28;20054;-73
2021/09/28 01:12:10;;;;;;;2.47;0.80;;;;;;;;;;4993279;28;20057;-73
2021/09/28 01:14:37;;;;;;;3.30;0.77;;;;;;;;;;4994983;28;20046;-72
2021/09/28 01:17:14;;;;;;;2.30;1.15;;;;;;;;;;4993460;28;20134;-74
2021/09/28 01:19:41;;;;;;;2.40;0.50;;;;;;;;;;4993445;28;20046;-74
2021/09/28 01:22:10;;;;;;;2.92;0.80;;;;;;;;;;4994317;28;20047;-74
2021/09/28 01:24:37;;;;;;;5.60;0.98;;;;;;;;;;4994468;28;20460;-74
2021/09/28 01:27:04;;;;;;;3.83;0.80;;;;;;;;;;4994318;28;20058;-74
2021/09/28 01:29:31;;;;;;;3.92;0.73;;;;;;;;;;5016817;23;20050;-67
2021/09/28 01:31:57;;;;;;;5.50;1.80;;;;;;;;;;4956690;28;20117;-67
2021/09/28 01:34:24;;;;;;;2.45;1.30;;;;;;;;;;4973417;28;20050;-67
2021/09/28 01:36:51;;;;;;;3.75;1.27;;;;;;;;;;4974074;28;20492;-67
2021/09/28 01:39:19;;;;;;;2.95;1.10;;;;;;;;;;4975194;28;20489;-67
2021/09/28 01:41:47;;;;;;;6.63;0.88;;;;;;;;;;4941700;28;20051;-67
2021/09/28 01:44:16;;;;;;;2.22;0.90;;;;;;;;;;4973558;28;20089;-67
2021/09/28 01:46:45;;;;;;;3.42;1.02;;;;;;;;;;4943591;29;20462;-67
2021/09/28 01:49:15;;;;;;;6.32;1.33;;;;;;;;;;4954190;28;20058;-67
2021/09/28 01:51:41;;;;;;;3.78;1.10;;;;;;;;;;4951309;28;20076;-67
2021/09/28 01:54:09;;;;;;;1.95;0.73;;;;;;;;;;4957382;28;20046;-67
2021/09/28 01:56:36;;;;;;;2.35;0.70;;;;;;;;;;4973265;28;20090;-67
2021/09/28 01:59:04;;;;;;;3.03;0.90;;;;;;;;;;4956900;28;20494;-67
2021/09/28 02:01:31;;;;;;;3.05;0.70;;;;;;;;;;4945507;28;20059;-67
2021/09/28 02:03:59;;;;;;;3.33;0.85;;;;;;;;;;4957035;28;20063;-67
2021/09/28 02:06:26;;;;;;;2.13;0.80;;;;;;;;;;4952040;29;20062;-68
2021/09/28 02:08:54;;;;;;;2.85;0.80;;;;;;;;;;4940294;28;20055;-68
2021/09/28 02:11:21;;;;;;;2.42;0.70;;;;;;;;;;4942223;29;20395;-68
2021/09/28 02:13:49;;;;;;;2.22;1.00;;;;;;;;;;4953675;29;20103;-67
2021/09/28 02:16:19;;;;;;;2.25;0.85;;;;;;;;;;4968010;28;20058;-67
2021/09/28 02:18:45;;;;;;;3.83;0.90;;;;;;;;;;4974108;28;20050;-67
2021/09/28 02:21:12;;;;;;;2.90;0.90;;;;;;;;;;4966834;28;20564;-67
2021/09/28 02:23:39;;;;;;;4.90;1.30;;;;;;;;;;4972551;28;20125;-68
2021/09/28 02:26:05;;;;;;;4.05;0.80;;;;;;;;;;4972635;28;20047;-68
2021/09/28 02:28:32;;;;;;;5.57;1.00;;;;;;;;;;4957046;28;20462;-67
2021/09/28 02:31:00;;;;;;;1.63;0.82;;;;;;;;;;4937227;29;20055;-67
2021/09/28 02:33:27;;;;;;;3.45;1.00;;;;;;;;;;4953210;29;20051;-68
2021/09/28 02:35:54;;;;;;;1.63;0.80;;;;;;;;;;4960287;28;20109;-68
2021/09/28 02:38:21;;;;;;;2.03;0.73;;;;;;;;;;4971893;28;20062;-68
2021/09/28 02:40:47;;;;;;;3.80;0.88;;;;;;;;;;4957718;28;20051;-68
2021/09/28 02:43:14;;;;;;;5.75;0.93;;;;;;;;;;4936969;29;20490;-68
2021/09/28 02:45:42;;;;;;;5.80;0.82;;;;;;;;;;4953136;28;20522;-68
2021/09/28 02:48:09;;;;;;;3.75;0.85;;;;;;;;;;4953120;28;20537;-68
2021/09/28 02:50:36;;;;;;;5.93;1.00;;;;;;;;;;4937201;29;20047;-68
2021/09/28 02:53:02;;;;;;;1.67;0.80;;;;;;;;;;4937075;29;20051;-68
2021/09/28 02:55:29;;;;;;;1.35;1.08;;;;;;;;;;4953127;28;20170;-68
2021/09/28 02:57:56;;;;;;;3.35;0.80;;;;;;;;;;4952779;28;20051;-68
2021/09/28 03:00:23;;;;;;;1.65;0.75;;;;;;;;;;4956125;28;20059;-68
2021/09/28 03:02:53;;;;;;;3.92;1.00;;;;;;;;;;4959264;28;20059;-69
2021/09/28 03:05:20;;;;;;;2.97;0.80;;;;;;;;;;4955926;28;20146;-69
2021/09/28 03:07:46;;;;;;;2.92;0.90;;;;;;;;;;4953508;29;20098;-69
2021/09/28 03:10:13;;;;;;;2.10;0.80;;;;;;;;;;4947952;29;20103;-69
2021/09/28 03:12:40;;;;;;;2.90;0.90;;;;;;;;;;4944064;29;20090;-68
2021/09/28 03:15:07;;;;;;;3.40;0.68;;;;;;;;;;4927989;29;20043;-69
2021/09/28 03:17:34;;;;;;;3.60;0.80;;;;;;;;;;4939796;28;20058;-68
2021/09/28 03:20:01;;;;;;;4.30;0.93;;;;;;;;;;4953390;29;20055;-68
2021/09/28 03:22:27;;;;;;;5.80;0.98;;;;;;;;;;4946206;29;20291;-69
2021/09/28 03:24:54;;;;;;;4.00;1.00;;;;;;;;;;4965255;28;20084;-68
2021/09/28 03:27:21;;;;;;;2.33;0.75;;;;;;;;;;4953549;29;20055;-68
2021/09/28 03:29:47;;;;;;;2.70;0.80;;;;;;;;;;4967985;28;20051;-68
2021/09/28 03:32:14;;;;;;;2.60;1.20;;;;;;;;;;4941561;29;20055;-69
2021/09/28 03:34:41;;;;;;;4.95;1.10;;;;;;;;;;4969011;28;20490;-69
2021/09/28 03:37:07;;;;;;;4.25;1.23;;;;;;;;;;4974400;28;20055;-69
2021/09/28 03:39:34;;;;;;;4.57;1.00;;;;;;;;;;4951486;29;20051;-70
2021/09/28 03:42:01;;;;;;;4.22;1.20;;;;;;;;;;4959587;28;20051;-69
2021/09/28 03:44:27;;;;;;;2.83;1.00;;;;;;;;;;4959086;28;20472;-69
2021/09/28 03:46:54;;;;;;;3.22;1.20;;;;;;;;;;4960155;29;20086;-70
2021/09/28 03:49:22;;;;;;;2.58;1.20;;;;;;;;;;4960491;28;20510;-69
2021/09/28 03:51:50;;;;;;;4.57;0.88;;;;;;;;;;4946517;28;20505;-69
2021/09/28 03:54:17;;;;;;;3.92;1.20;;;;;;;;;;4946535;28;20053;-68
2021/09/28 03:56:43;;;;;;;3.05;1.40;;;;;;;;;;4979291;28;20050;-69
2021/09/28 03:59:10;;;;;;;4.25;1.33;;;;;;;;;;4964719;28;20055;-68
2021/09/28 04:01:37;;;;;;;5.55;1.80;;;;;;;;;;4977130;28;20461;-68
2021/09/28 04:04:05;;;;;;;2.78;1.63;;;;;;;;;;4954374;28;20130;-70
2021/09/28 04:06:31;;;;;;;2.63;1.10;;;;;;;;;;4958776;28;20145;-69
2021/09/28 04:08:58;;;;;;;1.50;1.20;;;;;;;;;;4979200;28;20054;-69
2021/09/28 04:11:25;;;;;;;3.58;1.27;;;;;;;;;;4971488;28;20047;-68
2021/09/28 04:13:52;;;;;;;2.45;1.15;;;;;;;;;;4959766;29;20091;-68
2021/09/28 04:16:20;;;;;;;4.65;1.77;;;;;;;;;;4942951;29;20080;-68
2021/09/28 04:18:49;;;;;;;4.07;2.30;;;;;;;;;;4958730;28;20054;-69
2021/09/28 04:21:16;;;;;;;3.33;1.70;;;;;;;;;;4959645;29;20082;-69
2021/09/28 04:23:42;;;;;;;3.90;1.20;;;;;;;;;;4959687;29;20058;-69
2021/09/28 04:26:09;;;;;;;2.47;1.40;;;;;;;;;;4942623;29;20155;-69
2021/09/28 04:28:36;;;;;;;3.90;1.60;;;;;;;;;;4959958;29;20051;-68
2021/09/28 04:31:02;;;;;;;5.57;1.90;;;;;;;;;;4958130;28;20055;-69
2021/09/28 04:33:29;;;;;;;6.90;2.20;;;;;;;;;;4942570;29;20518;-69
2021/09/28 04:35:56;;;;;;;4.68;2.58;;;;;;;;;;4958212;29;20051;-69
2021/09/28 04:38:23;;;;;;;7.80;2.40;;;;;;;;;;4942665;29;20114;-69
2021/09/28 04:40:49;;;;;;;3.25;2.40;;;;;;;;;;4959587;28;20051;-69
2021/09/28 04:43:16;;;;;;;12.38;2.50;;;;;;;;;;4959561;28;20483;-69
2021/09/28 04:45:43;;;;;;;5.32;3.85;;;;;;;;;;4959567;29;20098;-69
2021/09/28 04:48:10;;;;;;;5.45;2.70;;;;;;;;;;4955812;28;20078;-68
2021/09/28 04:50:37;;;;;;;4.90;2.75;;;;;;;;;;4956337;29;20462;-69
2021/09/28 04:53:04;;;;;;;7.38;3.08;;;;;;;;;;4956204;29;20051;-69
2021/09/28 04:55:30;;;;;;;6.68;3.38;;;;;;;;;;4957055;28;20062;-68
2021/09/28 04:57:57;;;;;;;4.22;3.15;;;;;;;;;;4975366;28;20054;-68
2021/09/28 05:00:24;;;;;;;9.43;4.32;;;;;;;;;;4958397;28;20082;-68
2021/09/28 05:02:50;;;;;;;8.38;4.35;;;;;;;;;;4958588;28;20494;-67
2021/09/28 05:05:17;;;;;;;9.43;4.38;;;;;;;;;;4970021;28;20054;-69
2021/09/28 05:07:44;;;;;;;7.85;4.85;;;;;;;;;;4956365;29;20114;-69
2021/09/28 05:10:11;;;;;;;6.38;4.75;;;;;;;;;;4939235;29;20056;-68
2021/09/28 05:12:37;;;;;;;6.50;4.85;;;;;;;;;;4939259;29;20102;-68
2021/09/28 05:15:05;;;;;;;7.88;5.53;;;;;;;;;;4959472;28;20051;-68
2021/09/28 05:17:32;;;;;;;8.57;5.13;;;;;;;;;;4958589;28;20082;-68
2021/09/28 05:19:59;;;;;;;9.90;6.13;;;;;;;;;;4958248;28;20058;-68
2021/09/28 05:22:25;;;;;;;9.52;6.40;;;;;;;;;;4975146;28;20556;-69
2021/09/28 05:24:53;;;;;;;8.20;5.72;;;;;;;;;;4956216;28;20047;-69
2021/09/28 05:27:20;;;;;;;10.85;5.95;;;;;;;;;;4938915;29;20573;-68
2021/09/28 05:29:46;;;;;;;10.68;5.53;;;;;;;;;;4955875;29;20055;-69
2021/09/28 05:32:13;;;;;;;17.17;7.78;;;;;;;;;;4938412;29;20062;-69
2021/09/28 05:34:40;;;;;;;12.55;6.13;;;;;;;;;;4939166;29;20047;-69
2021/09/28 05:37:07;;;;;;;9.93;6.63;;;;;;;;;;4955644;29;20077;-70
2021/09/28 05:39:34;;;;;;;14.68;7.28;;;;;;;;;;4955999;29;20474;-69
2021/09/28 05:42:01;;;;;;;10.23;5.97;;;;;;;;;;4938604;29;20051;-68
2021/09/28 05:44:28;;;;;;;11.02;7.05;;;;;;;;;;4939285;29;20122;-69
2021/09/28 05:46:56;;;;;;;10.27;7.22;;;;;;;;;;4973285;28;20061;-69
2021/09/28 05:49:25;;;;;;;14.48;7.22;;;;;;;;;;4973968;28;20429;-70
2021/09/28 05:51:53;;;;;;;16.40;7.95;;;;;;;;;;4957674;28;20109;-68
2021/09/28 05:54:23;;;;;;;10.60;7.53;;;;;;;;;;4974656;28;20470;-69
2021/09/28 05:56:51;;;;;;;8.57;6.80;;;;;;;;;;4956583;28;20102;-68
2021/09/28 05:59:18;;;;;;;13.13;7.45;;;;;;;;;;4969699;28;20150;-71
2021/09/28 06:01:46;;;;;;;14.15;7.43;;;;;;;;;;4953982;29;20059;-69
2021/09/28 06:04:13;;;;;;;11.18;6.95;;;;;;;;;;4953908;29;20055;-70
2021/09/28 06:06:41;;;;;;;11.05;6.90;;;;;;;;;;4967939;28;20055;-70
2021/09/28 06:09:08;;;;;;;11.50;7.88;;;;;;;;;;4964590;28;20051;-70
2021/09/28 06:11:35;;;;;;;14.93;8.20;;;;;;;;;;4943774;29;20506;-69
2021/09/28 06:14:02;;;;;;;14.23;8.45;;;;;;;;;;4943157;29;20082;-67
2021/09/28 06:16:29;;;;;;;11.15;7.57;;;;;;;;;;4962344;28;20047;-68
2021/09/28 06:18:55;;;;;;;13.02;7.97;;;;;;;;;;4952737;29;20054;-69
2021/09/28 06:21:23;;;;;;;13.77;7.25;;;;;;;;;;4941599;29;20055;-68
2021/09/28 06:23:49;;;;;;;12.10;6.20;;;;;;;;;;4943738;29;20106;-69
2021/09/28 06:26:16;;;;;;;11.93;7.28;;;;;;;;;;4945519;29;20051;-69
2021/09/28 06:28:43;;;;;;;10.85;6.28;;;;;;;;;;4943439;28;20062;-69
2021/09/28 06:31:11;;;;;;;10.88;7.38;;;;;;;;;;4945560;29;20046;-69
2021/09/28 06:33:37;;;;;;;11.25;7.55;;;;;;;;;;4952091;28;20051;-69
2021/09/28 06:36:04;;;;;;;16.38;7.97;;;;;;;;;;4952526;29;20055;-69
2021/09/28 06:38:31;;;;;;;8.93;7.45;;;;;;;;;;4943477;28;20469;-69
2021/09/28 06:40:58;;;;;;;9.63;6.10;;;;;;;;;;4952985;29;20101;-69
2021/09/28 06:43:25;;;;;;;9.43;6.15;;;;;;;;;;4945505;28;20058;-68
2021/09/28 06:45:52;;;;;;;12.75;6.18;;;;;;;;;;4958369;28;20498;-69
2021/09/28 06:48:19;;;;;;;9.85;5.85;;;;;;;;;;4944133;29;20554;-69
2021/09/28 06:50:47;;;;;;;10.70;5.38;;;;;;;;;;4959004;28;20071;-70
2021/09/28 06:53:14;;;;;;;9.65;5.32;;;;;;;;;;4940664;29;20130;-70
2021/09/28 06:55:41;;;;;;;10.98;6.30;;;;;;;;;;4952426;28;20094;-69
2021/09/28 06:58:07;;;;;;;10.48;5.30;;;;;;;;;;4959005;28;20055;-69
2021/09/28 07:00:37;;;;;;;11.52;5.60;;;;;;;;;;4949418;29;20525;-68
2021/09/28 07:03:04;;;;;;;14.05;5.85;;;;;;;;;;4944381;29;20051;-68
2021/09/28 07:05:32;;;;;;;7.07;6.10;;;;;;;;;;4945397;28;20561;-69
2021/09/28 07:07:59;;;;;;;8.85;5.60;;;;;;;;;;4961463;28;20421;-68
2021/09/28 07:10:26;;;;;;;11.20;6.88;;;;;;;;;;4941844;29;20498;-68
2021/09/28 07:12:53;;;;;;;11.25;6.00;;;;;;;;;;4951457;29;20051;-68
2021/09/28 07:15:20;;;;;;;12.43;6.03;;;;;;;;;;4952117;28;20051;-68
2021/09/28 07:17:47;;;;;;;9.60;5.70;;;;;;;;;;4935230;29;20047;-67
2021/09/28 07:20:14;;;;;;;8.07;5.60;;;;;;;;;;4934937;29;20055;-67
2021/09/28 07:22:41;;;;;;;8.75;5.40;;;;;;;;;;4925891;28;20618;-66
2021/09/28 07:25:08;;;;;;;8.45;5.78;;;;;;;;;;4947506;28;20051;-67
2021/09/28 07:27:55;;;;;;;8.77;5.88;;;;;;;;;;4941154;29;20079;-67
2021/09/28 07:30:22;;;;;;;9.45;5.93;;;;;;;;;;4947076;23;20110;-68
2021/09/28 07:32:49;;;;;;;10.23;6.68;;;;;;;;;;4960323;28;20073;-67
2021/09/28 07:37:50;;;;;;;10.05;5.70;;;;;;;;;;4957364;28;20035;-68
2021/09/28 07:40:17;;;;;;;8.93;5.35;;;;;;;;;;4957274;28;20050;-70
2021/09/28 07:42:45;;;;;;;9.15;5.22;;;;;;;;;;4961848;28;20054;-69
2021/09/28 07:45:13;;;;;;;12.07;4.57;;;;;;;;;;4946774;28;20126;-74
2021/09/28 07:47:40;;;;;;;6.75;3.88;;;;;;;;;;4942205;29;20047;-72
2021/09/28 07:50:08;;;;;;;7.35;4.38;;;;;;;;;;4938287;29;20047;-73
2021/09/28 07:52:34;;;;;;;9.23;4.35;;;;;;;;;;4937334;28;20059;-71
2021/09/28 07:55:01;;;;;;;6.53;3.75;;;;;;;;;;4943786;28;20103;-68
2021/09/28 07:57:28;;;;;;;6.95;3.65;;;;;;;;;;4942507;28;20434;-71
2021/09/28 07:59:54;;;;;;;8.27;4.03;;;;;;;;;;4945625;29;20134;-71
2021/09/28 08:02:22;;;;;;;5.45;3.60;;;;;;;;;;4940313;29;20070;-71
2021/09/28 08:04:50;;;;;;;9.30;4.22;;;;;;;;;;4941427;28;20085;-73
2021/09/28 08:07:17;;;;;;;6.57;4.65;;;;;;;;;;4939419;29;20051;-70
2021/09/28 08:09:44;;;;;;;6.38;4.55;;;;;;;;;;4940926;29;20082;-73
2021/09/28 08:12:11;;;;;;;6.78;5.07;;;;;;;;;;4942155;28;20055;-73
2021/09/28 08:14:37;;;;;;;8.80;4.82;;;;;;;;;;4955649;28;20465;-73
2021/09/28 08:17:04;;;;;;;9.88;4.70;;;;;;;;;;4939081;29;20055;-71
2021/09/28 08:19:33;;;;;;;8.68;4.78;;;;;;;;;;4941657;28;20462;-75
2021/09/28 08:22:00;;;;;;;7.63;4.22;;;;;;;;;;4942892;28;20058;-69
2021/09/28 08:24:30;;;;;;;7.15;3.97;;;;;;;;;;4942278;28;20055;-70
2021/09/28 08:29:41;;;;;;;5.25;4.03;;;;;;;;;;4943185;29;20055;-72
2021/09/28 08:32:08;;;;;;;5.60;3.20;;;;;;;;;;4944871;28;20043;-69
2021/09/28 08:34:34;;;;;;;7.40;3.88;;;;;;;;;;4946663;28;20059;-74
2021/09/28 08:37:02;;;;;;;7.68;3.55;;;;;;;;;;4942637;29;20506;-70
2021/09/28 08:39:28;;;;;;;6.78;3.40;;;;;;;;;;4945648;29;20043;-70
2021/09/28 08:41:57;;;;;;;5.75;3.05;;;;;;;;;;4944758;29;20204;-70
2021/09/28 08:44:23;;;;;;;5.88;3.00;;;;;;;;;;4941700;29;20055;-68
2021/09/28 08:46:51;;;;;;;6.15;3.40;;;;;;;;;;4943242;29;20048;-70
2021/09/28 08:49:19;;;;;;;6.57;3.80;;;;;;;;;;4947638;28;20132;-67
2021/09/28 08:51:47;;;;;;;7.97;3.33;;;;;;;;;;4944096;29;20051;-68
2021/09/28 08:54:14;;;;;;;6.20;3.78;;;;;;;;;;4942927;28;20055;-70
2021/09/28 08:56:43;;;;;;;6.18;3.47;;;;;;;;;;4942036;29;20115;-69
2021/09/28 08:59:14;;;;;;;5.22;2.58;;;;;;;;;;4962478;28;20047;-69
2021/09/28 09:01:57;;;;;;;7.43;3.75;;;;;;;;;;4944957;29;20051;-68
2021/09/28 09:04:25;;;;;;;8.65;3.65;;;;;;;;;;4941773;29;20051;-74
2021/09/28 09:06:54;;;;;;;5.47;3.00;;;;;;;;;;4941363;29;20494;-72
2021/09/28 09:09:47;;;;;;;6.82;3.50;;;;;;;;;;4942554;29;20052;-72
2021/09/28 09:12:13;;;;;;;6.43;3.88;;;;;;;;;;4944624;28;20056;-74
2021/09/28 09:14:40;;;;;;;7.65;3.20;;;;;;;;;;4929180;29;20110;-75
2021/09/28 09:17:07;;;;;;;10.77;4.22;;;;;;;;;;4942991;28;20048;-69
2021/09/28 09:19:34;;;;;;;5.35;3.03;;;;;;;;;;4946305;28;20118;-71
2021/09/28 09:22:04;;;;;;;7.38;3.38;;;;;;;;;;4942543;29;20047;-70
2021/09/28 09:24:52;;;;;;;7.57;3.33;;;;;;;;;;4925553;29;20106;-68
2021/09/28 09:27:32;;;;;;;7.07;3.50;;;;;;;;;;4943392;28;20560;-70
2021/09/28 09:30:11;;;;;;;6.20;3.63;;;;;;;;;;4938970;29;20048;-70
2021/09/28 09:32:46;;;;;;;6.00;3.30;;;;;;;;;;4943541;28;20094;-70
2021/09/28 09:35:31;;;;;;;7.15;3.50;;;;;;;;;;4942242;29;20058;-66
2021/09/28 09:38:12;;;;;;;5.82;3.28;;;;;;;;;;4940730;28;20047;-67
2021/09/28 09:40:43;;;;;;;4.28;3.05;;;;;;;;;;4942788;29;20055;-65
2021/09/28 09:43:11;;;;;;;7.95;4.03;;;;;;;;;;4941048;29;20059;-67
2021/09/28 09:45:38;;;;;;;5.55;3.47;;;;;;;;;;4943708;28;20102;-66
2021/09/28 09:48:25;;;;;;;5.80;3.88;;;;;;;;;;4941572;29;20451;-66
2021/09/28 09:50:57;;;;;;;8.38;3.42;;;;;;;;;;4940719;29;20047;-66
2021/09/28 09:53:24;;;;;;;6.20;3.17;;;;;;;;;;4941173;28;20068;-69
2021/09/28 09:55:50;;;;;;;7.18;3.05;;;;;;;;;;4941552;28;20047;-70
2021/09/28 09:58:17;;;;;;;6.30;3.70;;;;;;;;;;4944205;28;20063;-71
2021/09/28 10:00:44;;;;;;;9.13;3.55;;;;;;;;;;4943994;28;20122;-70
2021/09/28 10:03:11;;;;;;;5.45;3.05;;;;;;;;;;4940044;29;20090;-73
2021/09/28 10:05:38;;;;;;;9.52;3.55;;;;;;;;;;4939869;29;20063;-72
2021/09/28 10:08:08;;;;;;;8.02;3.55;;;;;;;;;;4939769;29;20079;-71
2021/09/28 10:10:36;;;;;;;4.82;3.17;;;;;;;;;;4925399;29;20450;-73
2021/09/28 10:13:03;;;;;;;6.20;3.60;;;;;;;;;;4948952;29;20047;-71
2021/09/28 10:15:30;;;;;;;6.07;2.75;;;;;;;;;;4944788;28;20058;-72
2021/09/28 10:17:57;;;;;;;5.65;3.40;;;;;;;;;;4944393;29;20055;-72
2021/09/28 10:20:28;;;;;;;9.25;4.75;;;;;;;;;;4949811;28;20553;-72
2021/09/28 10:22:57;;;;;;;8.05;3.30;;;;;;;;;;4942010;28;20054;-72
2021/09/28 10:25:24;;;;;;;6.18;3.17;;;;;;;;;;4939973;28;20056;-66
2021/09/28 10:27:51;;;;;;;9.10;3.50;;;;;;;;;;4941955;28;20055;-73
2021/09/28 10:30:36;;;;;;;7.68;3.28;;;;;;;;;;4939439;28;20130;-71
2021/09/28 10:33:04;;;;;;;6.95;4.00;;;;;;;;;;4940564;29;20098;-72
2021/09/28 10:35:33;;;;;;;8.90;3.38;;;;;;;;;;4941062;29;20553;-75
2021/09/28 10:38:01;;;;;;;6.90;3.42;;;;;;;;;;4938489;29;20050;-76
2021/09/28 10:40:36;;;;;;;5.47;3.80;;;;;;;;;;4941051;29;20051;-74
2021/09/28 10:43:05;;;;;;;6.60;3.50;;;;;;;;;;4939658;29;20051;-73
2021/09/28 10:45:32;;;;;;;7.00;3.50;;;;;;;;;;4941250;28;20383;-73
2021/09/28 10:48:23;;;;;;;6.63;4.10;;;;;;;;;;4940134;29;20055;-71
2021/09/28 10:51:03;;;;;;;11.13;3.97;;;;;;;;;;4943006;29;20051;-70
2021/09/28 10:53:29;;;;;;;5.63;3.88;;;;;;;;;;4942419;29;20063;-70
2021/09/28 10:55:59;;;;;;;5.80;3.88;;;;;;;;;;4938435;29;20107;-73
2021/09/28 10:58:27;;;;;;;6.15;4.45;;;;;;;;;;4939745;29;20066;-75
2021/09/28 11:00:54;;;;;;;6.78;4.15;;;;;;;;;;4955899;28;20450;-72
2021/09/28 11:03:43;;;;;;;5.13;4.35;;;;;;;;;;4942088;29;20054;-73
2021/09/28 11:06:12;;;;;;;6.65;4.15;;;;;;;;;;4939138;29;20087;-73
2021/09/28 11:08:38;;;;;;;7.97;4.57;;;;;;;;;;4956511;28;20055;-74
2021/09/28 11:11:12;;;;;;;5.47;3.80;;;;;;;;;;4941736;29;20418;-71
2021/09/28 11:13:42;;;;;;;7.93;3.97;;;;;;;;;;4940807;28;20097;-72
2021/09/28 11:16:09;;;;;;;8.98;4.00;;;;;;;;;;4955174;28;20043;-72
2021/09/28 11:18:38;;;;;;;5.78;3.78;;;;;;;;;;4943787;28;20059;-69
2021/09/28 11:21:08;;;;;;;5.35;3.83;;;;;;;;;;4944187;29;20051;-69
2021/09/28 11:23:35;;;;;;;7.65;3.72;;;;;;;;;;4946512;29;20047;-69
2021/09/28 11:26:02;;;;;;;6.90;4.57;;;;;;;;;;4947956;28;20506;-69
2021/09/28 11:28:30;;;;;;;5.95;4.00;;;;;;;;;;4947384;28;20054;-70
2021/09/28 11:31:04;;;;;;;8.45;3.97;;;;;;;;;;4939862;29;20075;-69
2021/09/28 11:33:39;;;;;;;5.03;3.88;;;;;;;;;;4940776;29;20048;-69
2021/09/28 11:36:09;;;;;;;6.28;4.10;;;;;;;;;;4938687;29;20047;-70
2021/09/28 11:38:47;;;;;;;8.93;4.85;;;;;;;;;;4947501;29;20265;-69
2021/09/28 11:41:16;;;;;;;8.60;3.72;;;;;;;;;;4948196;28;20059;-70
2021/09/28 11:43:48;;;;;;;6.43;3.70;;;;;;;;;;4948624;28;20051;-70
2021/09/28 11:46:17;;;;;;;6.10;4.25;;;;;;;;;;4939680;29;20055;-69
2021/09/28 11:48:54;;;;;;;5.03;3.90;;;;;;;;;;4942712;28;20403;-69
2021/09/28 11:51:25;;;;;;;5.80;3.70;;;;;;;;;;4944597;29;20506;-69
2021/09/28 11:53:54;;;;;;;9.18;3.97;;;;;;;;;;4945186;28;20047;-70
2021/09/28 11:56:23;;;;;;;5.95;4.00;;;;;;;;;;4948607;28;20051;-69
2021/09/28 11:58:51;;;;;;;5.18;4.15;;;;;;;;;;4949249;29;20051;-68
2021/09/28 12:01:19;;;;;;;6.55;3.80;;;;;;;;;;4934274;29;20110;-68
2021/09/28 12:07:21;;;;;;;5.70;3.97;;;;;;;;;;4952767;28;20686;-69
2021/09/28 12:09:51;;;;;;;7.22;3.90;;;;;;;;;;4951558;29;20146;-70
2021/09/28 12:12:22;;;;;;;5.50;3.75;;;;;;;;;;4951054;29;20095;-69
2021/09/28 12:14:52;;;;;;;5.85;3.15;;;;;;;;;;4950760;28;20055;-69
2021/09/28 12:17:22;;;;;;;3.78;3.20;;;;;;;;;;4953107;29;20043;-69
2021/09/28 12:19:59;;;;;;;4.97;3.28;;;;;;;;;;4949709;28;20482;-69
2021/09/28 12:22:37;;;;;;;5.00;2.80;;;;;;;;;;4933299;29;20549;-69
2021/09/28 12:25:07;;;;;;;4.13;2.40;;;;;;;;;;4947479;28;20058;-69
2021/09/28 12:27:34;;;;;;;3.42;2.42;;;;;;;;;;4942784;29;20055;-69
2021/09/28 12:30:08;;;;;;;3.80;2.03;;;;;;;;;;4943608;28;20055;-69
2021/09/28 12:32:34;;;;;;;6.05;3.00;;;;;;;;;;4944089;29;20573;-69
2021/09/28 12:35:07;;;;;;;4.53;2.53;;;;;;;;;;4941939;28;20059;-69
2021/09/28 12:37:45;;;;;;;3.53;2.38;;;;;;;;;;4944340;29;20066;-69
2021/09/28 12:40:13;;;;;;;5.28;2.17;;;;;;;;;;4942974;29;20121;-69
2021/09/28 12:42:40;;;;;;;6.45;2.22;;;;;;;;;;4942689;28;20761;-69
2021/09/28 12:45:13;;;;;;;4.75;2.53;;;;;;;;;;4943577;29;20051;-69
2021/09/28 12:47:55;;;;;;;2.70;1.80;;;;;;;;;;4942428;29;20545;-69
2021/09/28 12:50:25;;;;;;;2.72;2.20;;;;;;;;;;4945286;29;20051;-69
2021/09/28 12:53:05;;;;;;;5.90;2.30;;;;;;;;;;4943465;29;20051;-69
2021/09/28 12:55:36;;;;;;;2.17;1.98;;;;;;;;;;4942337;28;20055;-69
2021/09/28 12:58:14;;;;;;;4.05;2.15;;;;;;;;;;4945024;29;20442;-69
2021/09/28 13:00:42;;;;;;;3.03;2.40;;;;;;;;;;4947821;28;20070;-69
2021/09/28 13:03:19;;;;;;;2.05;1.75;;;;;;;;;;4943406;29;20043;-69
2021/09/28 13:05:51;;;;;;;4.25;1.88;;;;;;;;;;4947036;28;20102;-69
2021/09/28 13:08:22;;;;;;;4.47;2.03;;;;;;;;;;4944564;28;20051;-69
2021/09/28 13:10:49;;;;;;;5.60;2.38;;;;;;;;;;4941766;28;20494;-69
2021/09/28 13:13:17;;;;;;;3.97;1.95;;;;;;;;;;4943589;29;20062;-69
2021/09/28 13:15:44;;;;;;;4.25;2.13;;;;;;;;;;4940326;28;20055;-69
2021/09/28 13:18:14;;;;;;;4.68;2.00;;;;;;;;;;4943080;29;20093;-69
2021/09/28 13:20:41;;;;;;;5.15;2.53;;;;;;;;;;4953246;29;20456;-69
2021/09/28 13:23:08;;;;;;;4.88;2.38;;;;;;;;;;4955535;28;20059;-69
2021/09/28 13:25:36;;;;;;;4.65;2.00;;;;;;;;;;4938849;29;20062;-69
2021/09/28 13:28:05;;;;;;;3.60;2.10;;;;;;;;;;4955687;28;20047;-69
2021/09/28 13:30:35;;;;;;;6.22;2.75;;;;;;;;;;4956476;28;20055;-70
2021/09/28 13:33:02;;;;;;;4.57;2.75;;;;;;;;;;4954328;29;20061;-69
2021/09/28 13:35:29;;;;;;;3.08;2.30;;;;;;;;;;5009718;23;20077;-64
2021/09/28 13:37:56;;;;;;;2.35;2.15;;;;;;;;;;5016970;28;20081;-64
2021/09/28 13:40:22;;;;;;;4.22;2.13;;;;;;;;;;5004693;28;20074;-71
2021/09/28 13:42:49;;;;;;;3.03;2.00;;;;;;;;;;5012910;28;20050;-68
2021/09/28 13:45:16;;;;;;;2.75;2.35;;;;;;;;;;5003611;28;20038;-66
2021/09/28 13:47:42;;;;;;;2.92;2.00;;;;;;;;;;5006604;28;20062;-66
2021/09/28 13:50:10;;;;;;;7.72;3.22;;;;;;;;;;5008866;28;20081;-65
2021/09/28 13:52:37;;;;;;;2.60;1.70;;;;;;;;;;5004309;28;20050;-66
2021/09/28 13:55:06;;;;;;;3.08;1.83;;;;;;;;;;5003539;28;20080;-66
2021/09/28 13:57:34;;;;;;;4.30;2.17;;;;;;;;;;5003502;28;20054;-66
2021/09/28 14:00:02;;;;;;;2.03;1.70;;;;;;;;;;4996846;28;20068;-66
2021/09/28 14:02:28;;;;;;;3.08;1.95;;;;;;;;;;5004048;28;20077;-66
2021/09/28 14:04:55;;;;;;;2.63;1.65;;;;;;;;;;5000249;28;20057;-66
2021/09/28 14:07:22;;;;;;;4.38;1.42;;;;;;;;;;5005614;28;20284;-66
2021/09/28 14:09:48;;;;;;;4.47;1.77;;;;;;;;;;5001113;28;20042;-66
2021/09/28 14:12:15;;;;;;;4.72;1.40;;;;;;;;;;4995176;28;20565;-66
2021/09/28 14:14:42;;;;;;;2.58;1.40;;;;;;;;;;4979271;28;20050;-66
2021/09/28 14:17:09;;;;;;;2.75;1.83;;;;;;;;;;4963790;28;20489;-66
2021/09/28 14:19:37;;;;;;;2.78;1.98;;;;;;;;;;4979309;28;20179;-66
2021/09/28 14:22:05;;;;;;;4.80;2.20;;;;;;;;;;4983070;28;20050;-68
2021/09/28 14:24:31;;;;;;;2.53;2.10;;;;;;;;;;4981253;28;20054;-66
2021/09/28 14:26:58;;;;;;;4.97;2.30;;;;;;;;;;4985290;28;20548;-66
2021/09/28 14:29:25;;;;;;;7.68;2.28;;;;;;;;;;5010524;28;20046;-66
2021/09/28 14:31:52;;;;;;;4.10;1.98;;;;;;;;;;4999362;28;20081;-69
2021/09/28 14:34:20;;;;;;;4.75;2.28;;;;;;;;;;5002123;28;20128;-69
2021/09/28 14:36:47;;;;;;;2.78;1.58;;;;;;;;;;5000729;28;20114;-73
2021/09/28 14:39:14;;;;;;;2.47;1.70;;;;;;;;;;4976113;28;20034;-70
2021/09/28 14:41:41;;;;;;;6.18;1.95;;;;;;;;;;5000700;28;20094;-69
2021/09/28 14:44:08;;;;;;;3.55;1.60;;;;;;;;;;4981924;28;20416;-75
2021/09/28 14:46:35;;;;;;;4.22;1.90;;;;;;;;;;4961214;28;20061;-74
2021/09/28 14:49:02;;;;;;;2.72;1.70;;;;;;;;;;4982406;28;20046;-72
2021/09/28 14:51:30;;;;;;;3.00;1.95;;;;;;;;;;4978720;28;20061;-73
2021/09/28 14:53:57;;;;;;;2.50;1.48;;;;;;;;;;4964459;28;20050;-72
2021/09/28 14:56:23;;;;;;;3.75;1.63;;;;;;;;;;4978946;28;20054;-75